Terminal Aerodrome Forecast
Issued by NWS Wakefield, VA

Home | Current Version | Previous Version | Text Only | Print | Product List | Glossary On
Versions: 1 2 3 4 5 6 7 8 9 10 11 12 13 14 15
000
FTUS41 KAKQ 202300
TAFORF
TAF
KORF 202340Z 2100/2124 06008KT P6SM BKN050
      TEMPO 2100/2102 BKN015 OVC040
     FM210800 05006KT P6SM BKN015 OVC030
     FM211400 03005KT P6SM OVC025
     FM211700 34007KT P6SM BKN250=

USA.gov is the U.S. government's official web portal to all federal, state and local government web resources and services.